createdAt,value
2017-12-24T00:00:36.214Z,0
2017-12-24T00:01:35.476Z,0
2017-12-24T00:02:36.067Z,0
2017-12-24T00:03:36.151Z,0
2017-12-24T00:04:35.516Z,0
2017-12-24T00:05:36.466Z,0
2017-12-24T00:06:36.185Z,0
2017-12-24T00:07:35.886Z,0
2017-12-24T00:08:36.063Z,0
2017-12-24T00:09:36.857Z,0
2017-12-24T00:10:36.395Z,0
2017-12-24T00:11:36.698Z,0
2017-12-24T00:12:35.795Z,0
2017-12-24T00:13:36.872Z,0
2017-12-24T00:14:35.906Z,0
2017-12-24T00:15:35.990Z,0
2017-12-24T00:16:35.644Z,0
2017-12-24T00:17:35.971Z,0
2017-12-24T00:18:36.181Z,0
2017-12-24T00:19:36.160Z,0
2017-12-24T00:20:35.813Z,0
2017-12-24T00:21:35.539Z,0
2017-12-24T00:22:35.570Z,0
2017-12-24T00:23:35.287Z,0
2017-12-24T00:24:35.284Z,0
2017-12-24T00:25:35.544Z,0
2017-12-24T00:26:35.529Z,0
2017-12-24T00:27:35.466Z,0
2017-12-24T00:28:36.073Z,0
2017-12-24T00:29:35.758Z,0
2017-12-24T00:30:35.513Z,0
2017-12-24T00:31:35.745Z,0
2017-12-24T00:32:35.509Z,0
2017-12-24T00:33:35.745Z,0
2017-12-24T00:34:35.747Z,0
2017-12-24T00:35:35.493Z,0
2017-12-24T00:36:35.487Z,0
2017-12-24T00:37:35.723Z,0
2017-12-24T00:38:35.719Z,0
2017-12-24T00:39:35.724Z,0
2017-12-24T00:40:35.467Z,0
2017-12-24T00:41:35.469Z,0
2017-12-24T00:42:35.701Z,0
2017-12-24T00:43:35.189Z,0
2017-12-24T00:44:35.470Z,0
2017-12-24T00:45:36.028Z,0
2017-12-24T00:46:35.470Z,0
2017-12-24T00:47:35.690Z,0
2017-12-24T00:48:35.217Z,0
2017-12-24T00:49:35.412Z,0
2017-12-24T00:50:35.167Z,0
2017-12-24T00:51:35.655Z,0
2017-12-24T00:52:35.414Z,0
2017-12-24T00:53:35.172Z,0
2017-12-24T00:54:35.649Z,0
2017-12-24T00:55:35.388Z,0
2017-12-24T00:56:35.382Z,0
2017-12-24T00:57:35.385Z,0
2017-12-24T00:58:36.422Z,0
2017-12-24T00:59:35.123Z,0
2017-12-24T01:00:35.629Z,0
2017-12-24T01:01:35.108Z,0
2017-12-24T01:02:35.373Z,0
2017-12-24T01:03:35.613Z,0
2017-12-24T01:04:35.113Z,0
2017-12-24T01:05:35.347Z,0
2017-12-24T01:06:35.635Z,0
2017-12-24T01:07:35.584Z,0
2017-12-24T01:08:35.073Z,0
2017-12-24T01:09:35.329Z,0
2017-12-24T01:10:35.369Z,0
2017-12-24T01:11:34.813Z,0
2017-12-24T01:12:35.049Z,0
2017-12-24T01:13:35.046Z,0
2017-12-24T01:14:35.316Z,0
2017-12-24T01:15:35.542Z,0
2017-12-24T01:16:35.287Z,0
2017-12-24T01:17:35.349Z,0
2017-12-24T01:18:35.292Z,0
2017-12-24T01:19:35.536Z,0
2017-12-24T01:20:35.585Z,0
2017-12-24T01:21:35.254Z,0
2017-12-24T01:22:35.257Z,0
2017-12-24T01:23:34.997Z,0
2017-12-24T01:24:35.259Z,0
2017-12-24T01:25:34.737Z,0
2017-12-24T01:26:35.494Z,0
2017-12-24T01:27:34.975Z,0
2017-12-24T01:28:35.539Z,0
2017-12-24T01:29:34.871Z,0
2017-12-24T01:30:35.475Z,0
2017-12-24T01:31:34.958Z,0
2017-12-24T01:32:34.946Z,0
2017-12-24T01:33:35.461Z,0
2017-12-24T01:34:34.943Z,0
2017-12-24T01:35:35.192Z,0
2017-12-24T01:36:35.191Z,0
2017-12-24T01:37:35.187Z,0
2017-12-24T01:38:35.443Z,0
2017-12-24T01:39:35.429Z,0
2017-12-24T01:40:34.671Z,0
2017-12-24T01:41:35.171Z,0
2017-12-24T01:42:35.168Z,0
2017-12-24T01:43:35.152Z,0
2017-12-24T01:44:36.643Z,0
2017-12-24T01:45:34.884Z,0
2017-12-24T01:46:35.395Z,0
2017-12-24T01:47:35.388Z,0
2017-12-24T01:48:35.133Z,0
2017-12-24T01:49:35.441Z,0
2017-12-24T01:50:35.468Z,0
2017-12-24T01:51:35.320Z,0
2017-12-24T01:52:34.594Z,0
2017-12-24T01:53:34.785Z,0
2017-12-24T01:54:35.212Z,0
2017-12-24T01:55:35.480Z,0
2017-12-24T01:56:35.680Z,0
2017-12-24T01:57:35.056Z,0
2017-12-24T01:58:35.125Z,0
2017-12-24T01:59:38.046Z,0
2017-12-24T02:00:35.173Z,0
2017-12-24T02:01:35.050Z,0
2017-12-24T02:02:35.632Z,0
2017-12-24T02:03:35.061Z,0
2017-12-24T02:04:35.147Z,0
2017-12-24T02:05:35.581Z,0
2017-12-24T02:06:35.334Z,0
2017-12-24T02:07:35.287Z,0
2017-12-24T02:08:35.303Z,0
2017-12-24T02:09:35.288Z,0
2017-12-24T02:10:35.033Z,0
2017-12-24T02:11:34.262Z,0
2017-12-24T02:12:35.021Z,0
2017-12-24T02:13:34.763Z,0
2017-12-24T02:14:35.268Z,0
2017-12-24T02:15:34.997Z,0
2017-12-24T02:16:34.731Z,0
2017-12-24T02:17:35.008Z,0
2017-12-24T02:18:35.236Z,0
2017-12-24T02:19:34.970Z,0
2017-12-24T02:20:34.983Z,0
2017-12-24T02:21:34.970Z,0
2017-12-24T02:22:34.712Z,0
2017-12-24T02:23:35.222Z,0
2017-12-24T02:24:35.214Z,0
2017-12-24T02:25:34.953Z,0
2017-12-24T02:26:35.204Z,0
2017-12-24T02:27:34.680Z,0
2017-12-24T02:28:34.933Z,0
2017-12-24T02:29:35.189Z,0
2017-12-24T02:30:38.376Z,0
2017-12-24T02:31:34.918Z,0
2017-12-24T02:32:34.927Z,0
2017-12-24T02:33:35.179Z,0
2017-12-24T02:34:35.163Z,0
2017-12-24T02:35:35.174Z,0
2017-12-24T02:36:35.162Z,0
2017-12-24T02:37:35.149Z,0
2017-12-24T02:38:35.196Z,0
2017-12-24T02:39:35.135Z,0
2017-12-24T02:40:35.129Z,0
2017-12-24T02:41:34.612Z,0
2017-12-24T02:42:35.117Z,0
2017-12-24T02:43:35.119Z,0
2017-12-24T02:44:34.600Z,0
2017-12-24T02:45:35.052Z,0
2017-12-24T02:46:34.855Z,0
2017-12-24T02:47:35.106Z,0
2017-12-24T02:48:34.837Z,0
2017-12-24T02:49:35.095Z,0
2017-12-24T02:50:34.837Z,0
2017-12-24T02:51:35.069Z,0
2017-12-24T02:52:34.566Z,0
2017-12-24T02:53:35.065Z,0
2017-12-24T02:54:35.054Z,0
2017-12-24T02:55:34.805Z,0
2017-12-24T02:56:34.808Z,0
2017-12-24T02:57:35.058Z,0
2017-12-24T02:58:34.793Z,0
2017-12-24T02:59:34.528Z,0
2017-12-24T03:00:36.378Z,0
2017-12-24T03:01:35.023Z,0
2017-12-24T03:02:35.020Z,0
2017-12-24T03:03:34.815Z,0
2017-12-24T03:04:34.587Z,0
2017-12-24T03:05:34.758Z,0
2017-12-24T03:06:35.003Z,0
2017-12-24T03:07:34.740Z,0
2017-12-24T03:08:34.995Z,0
2017-12-24T03:09:34.990Z,0
2017-12-24T03:10:34.728Z,0
2017-12-24T03:11:34.726Z,0
2017-12-24T03:12:34.733Z,0
2017-12-24T03:13:34.959Z,0
2017-12-24T03:14:34.711Z,0
2017-12-24T03:15:34.727Z,0
2017-12-24T03:16:34.706Z,0
2017-12-24T03:17:34.710Z,0
2017-12-24T03:18:34.708Z,0
2017-12-24T03:19:34.935Z,0
2017-12-24T03:20:34.728Z,0
2017-12-24T03:21:34.672Z,0
2017-12-24T03:22:34.921Z,0
2017-12-24T03:23:34.666Z,0
2017-12-24T03:24:34.399Z,0
2017-12-24T03:25:34.670Z,0
2017-12-24T03:26:34.402Z,0
2017-12-24T03:27:34.907Z,0
2017-12-24T03:28:34.917Z,0
2017-12-24T03:29:34.904Z,0
2017-12-24T03:30:35.902Z,0
2017-12-24T03:31:34.887Z,0
2017-12-24T03:32:34.871Z,0
2017-12-24T03:33:34.875Z,0
2017-12-24T03:34:34.607Z,0
2017-12-24T03:35:34.879Z,0
2017-12-24T03:36:34.901Z,0
2017-12-24T03:37:34.674Z,0
2017-12-24T03:38:34.836Z,0
2017-12-24T03:39:34.837Z,0
2017-12-24T03:40:34.835Z,0
2017-12-24T03:41:34.834Z,0
2017-12-24T03:42:34.567Z,0
2017-12-24T03:43:34.561Z,0
2017-12-24T03:44:34.818Z,0
2017-12-24T03:45:34.825Z,0
2017-12-24T03:46:34.824Z,0
2017-12-24T03:47:34.550Z,0
2017-12-24T03:48:34.553Z,0
2017-12-24T03:49:34.543Z,0
2017-12-24T03:50:34.786Z,0
2017-12-24T03:51:34.282Z,0
2017-12-24T03:52:34.269Z,0
2017-12-24T03:53:34.822Z,0
2017-12-24T03:54:34.515Z,0
2017-12-24T03:55:34.509Z,0
2017-12-24T03:56:34.767Z,0
2017-12-24T03:57:34.501Z,0
2017-12-24T03:58:34.492Z,0
2017-12-24T03:59:34.249Z,0
2017-12-24T04:00:34.481Z,0
2017-12-24T04:01:36.403Z,0
2017-12-24T04:02:34.734Z,0
2017-12-24T04:03:34.234Z,0
2017-12-24T04:04:34.739Z,0
2017-12-24T04:05:34.716Z,0
2017-12-24T04:06:34.718Z,0
2017-12-24T04:07:34.718Z,0
2017-12-24T04:08:34.703Z,0
2017-12-24T04:09:34.448Z,0
2017-12-24T04:10:34.760Z,0
2017-12-24T04:11:34.430Z,0
2017-12-24T04:12:34.174Z,0
2017-12-24T04:13:34.671Z,0
2017-12-24T04:14:34.675Z,0
2017-12-24T04:15:34.661Z,0
2017-12-24T04:16:34.669Z,0
2017-12-24T04:17:34.681Z,0
2017-12-24T04:18:34.404Z,0
2017-12-24T04:19:34.401Z,0
2017-12-24T04:20:34.668Z,0
2017-12-24T04:21:34.137Z,0
2017-12-24T04:22:34.634Z,0
2017-12-24T04:23:34.376Z,0
2017-12-24T04:24:34.371Z,0
2017-12-24T04:25:34.382Z,0
2017-12-24T04:26:34.628Z,0
2017-12-24T04:27:34.105Z,0
2017-12-24T04:28:34.602Z,0
2017-12-24T04:29:34.609Z,0
2017-12-24T04:30:34.109Z,0
2017-12-24T04:31:34.588Z,0
2017-12-24T04:32:34.585Z,0
2017-12-24T04:33:34.582Z,0
2017-12-24T04:34:34.583Z,0
2017-12-24T04:35:34.064Z,0
2017-12-24T04:36:34.567Z,0
2017-12-24T04:37:34.311Z,0
2017-12-24T04:38:33.792Z,0
2017-12-24T04:39:34.551Z,0
2017-12-24T04:40:34.301Z,0
2017-12-24T04:41:34.608Z,0
2017-12-24T04:42:34.056Z,0
2017-12-24T04:43:34.294Z,0
2017-12-24T04:44:34.299Z,0
2017-12-24T04:45:34.294Z,0
2017-12-24T04:46:34.266Z,0
2017-12-24T04:47:34.514Z,0
2017-12-24T04:48:34.515Z,0
2017-12-24T04:49:34.256Z,0
2017-12-24T04:50:34.246Z,0
2017-12-24T04:51:34.249Z,0
2017-12-24T04:52:34.484Z,0
2017-12-24T04:53:34.244Z,0
2017-12-24T04:54:34.471Z,0
2017-12-24T04:55:34.216Z,0
2017-12-24T04:56:34.220Z,0
2017-12-24T04:57:34.462Z,0
2017-12-24T04:58:34.453Z,0
2017-12-24T04:59:33.949Z,0
2017-12-24T05:00:34.440Z,0
2017-12-24T05:01:34.684Z,0
2017-12-24T05:02:34.193Z,0
2017-12-24T05:03:34.437Z,0
2017-12-24T05:04:34.436Z,0
2017-12-24T05:05:34.167Z,0
2017-12-24T05:06:34.163Z,0
2017-12-24T05:07:34.407Z,0
2017-12-24T05:08:34.405Z,0
2017-12-24T05:09:34.409Z,0
2017-12-24T05:10:34.177Z,0
2017-12-24T05:11:34.188Z,0
2017-12-24T05:12:34.193Z,0
2017-12-24T05:13:34.130Z,0
2017-12-24T05:14:34.388Z,0
2017-12-24T05:15:34.452Z,0
2017-12-24T05:16:34.358Z,0
2017-12-24T05:17:34.107Z,0
2017-12-24T05:18:34.355Z,0
2017-12-24T05:19:34.103Z,0
2017-12-24T05:20:34.361Z,0
2017-12-24T05:21:34.357Z,0
2017-12-24T05:22:34.342Z,0
2017-12-24T05:23:34.327Z,0
2017-12-24T05:24:33.816Z,0
2017-12-24T05:25:33.820Z,0
2017-12-24T05:26:34.085Z,0
2017-12-24T05:27:34.067Z,0
2017-12-24T05:28:34.063Z,0
2017-12-24T05:29:34.062Z,0
2017-12-24T05:30:34.037Z,0
2017-12-24T05:31:34.537Z,0
2017-12-24T05:32:34.023Z,0
2017-12-24T05:33:34.287Z,0
2017-12-24T05:34:34.036Z,0
2017-12-24T05:35:34.290Z,0
2017-12-24T05:36:34.282Z,0
2017-12-24T05:37:34.272Z,0
2017-12-24T05:38:34.270Z,0
2017-12-24T05:39:33.992Z,0
2017-12-24T05:40:34.266Z,0
2017-12-24T05:41:34.030Z,0
2017-12-24T05:42:33.729Z,0
2017-12-24T05:43:33.976Z,0
2017-12-24T05:44:33.984Z,0
2017-12-24T05:45:34.239Z,0
2017-12-24T05:46:33.958Z,0
2017-12-24T05:47:34.204Z,0
2017-12-24T05:48:33.938Z,0
2017-12-24T05:49:33.936Z,0
2017-12-24T05:50:34.232Z,0
2017-12-24T05:51:33.672Z,0
2017-12-24T05:52:34.177Z,0
2017-12-24T05:53:34.224Z,0
2017-12-24T05:54:34.173Z,0
2017-12-24T05:55:33.915Z,0
2017-12-24T05:56:33.920Z,0
2017-12-24T05:57:34.151Z,0
2017-12-24T05:58:34.152Z,0
2017-12-24T05:59:34.153Z,0
2017-12-24T06:00:33.891Z,0
2017-12-24T06:01:34.397Z,0
2017-12-24T06:02:33.871Z,0
2017-12-24T06:03:34.114Z,0
2017-12-24T06:04:33.611Z,0
2017-12-24T06:05:33.851Z,0
2017-12-24T06:06:33.866Z,0
2017-12-24T06:07:34.094Z,0
2017-12-24T06:08:33.845Z,0
2017-12-24T06:09:33.580Z,0
2017-12-24T06:10:33.832Z,0
2017-12-24T06:11:33.818Z,0
2017-12-24T06:12:33.822Z,0
2017-12-24T06:13:33.811Z,0
2017-12-24T06:14:34.062Z,0
2017-12-24T06:15:34.051Z,0
2017-12-24T06:16:34.859Z,0
2017-12-24T06:17:33.540Z,0
2017-12-24T06:18:33.794Z,0
2017-12-24T06:19:34.034Z,0
2017-12-24T06:20:34.021Z,0
2017-12-24T06:21:33.778Z,0
2017-12-24T06:22:34.016Z,0
2017-12-24T06:23:33.504Z,0
2017-12-24T06:24:33.751Z,0
2017-12-24T06:25:33.747Z,0
2017-12-24T06:26:34.010Z,0
2017-12-24T06:27:33.988Z,0
2017-12-24T06:28:33.480Z,0
2017-12-24T06:29:33.730Z,0
2017-12-24T06:30:33.476Z,0
2017-12-24T06:31:37.236Z,0
2017-12-24T06:32:33.456Z,0
2017-12-24T06:33:33.710Z,0
2017-12-24T06:34:34.011Z,0
2017-12-24T06:35:33.441Z,0
2017-12-24T06:36:33.702Z,0
2017-12-24T06:37:33.939Z,0
2017-12-24T06:38:33.933Z,0
2017-12-24T06:39:33.681Z,0
2017-12-24T06:40:33.929Z,0
2017-12-24T06:41:33.679Z,0
2017-12-24T06:42:33.685Z,0
2017-12-24T06:43:33.166Z,0
2017-12-24T06:44:32.891Z,0
2017-12-24T06:45:33.934Z,0
2017-12-24T06:46:33.629Z,0
2017-12-24T06:47:33.895Z,0
2017-12-24T06:48:33.889Z,0
2017-12-24T06:49:33.886Z,0
2017-12-24T06:50:33.633Z,0
2017-12-24T06:51:33.627Z,0
2017-12-24T06:52:33.622Z,0
2017-12-24T06:53:33.621Z,0
2017-12-24T06:54:33.861Z,0
2017-12-24T06:55:33.851Z,0
2017-12-24T06:56:33.857Z,0
2017-12-24T06:57:33.584Z,0
2017-12-24T06:58:33.837Z,0
2017-12-24T06:59:33.839Z,0
2017-12-24T07:00:33.827Z,0
2017-12-24T07:01:33.579Z,0
2017-12-24T07:02:38.370Z,0
2017-12-24T07:03:33.564Z,0
2017-12-24T07:04:33.836Z,0
2017-12-24T07:05:33.634Z,0
2017-12-24T07:06:33.544Z,0
2017-12-24T07:07:33.806Z,0
2017-12-24T07:08:33.774Z,0
2017-12-24T07:09:33.038Z,0
2017-12-24T07:10:33.530Z,0
2017-12-24T07:11:33.258Z,0
2017-12-24T07:12:33.753Z,0
2017-12-24T07:13:33.770Z,0
2017-12-24T07:14:33.496Z,0
2017-12-24T07:15:33.759Z,0
2017-12-24T07:16:33.732Z,0
2017-12-24T07:17:33.490Z,0
2017-12-24T07:18:33.465Z,0
2017-12-24T07:19:33.707Z,0
2017-12-24T07:20:33.708Z,5
2017-12-24T07:21:33.461Z,5
2017-12-24T07:22:33.188Z,5
2017-12-24T07:23:33.711Z,5
2017-12-24T07:24:33.450Z,5
2017-12-24T07:25:33.438Z,5
2017-12-24T07:26:33.451Z,5
2017-12-24T07:27:33.666Z,5
2017-12-24T07:28:33.445Z,5
2017-12-24T07:29:33.410Z,5
2017-12-24T07:30:33.658Z,5
2017-12-24T07:31:33.155Z,5
2017-12-24T07:32:36.854Z,10
2017-12-24T07:33:33.637Z,10
2017-12-24T07:34:33.623Z,10
2017-12-24T07:35:33.622Z,10
2017-12-24T07:36:33.619Z,10
2017-12-24T07:37:33.415Z,10
2017-12-24T07:38:33.619Z,10
2017-12-24T07:39:33.601Z,10
2017-12-24T07:40:33.618Z,10
2017-12-24T07:41:33.594Z,10
2017-12-24T07:42:33.593Z,10
2017-12-24T07:43:33.636Z,10
2017-12-24T07:44:33.385Z,15
2017-12-24T07:45:33.560Z,15
2017-12-24T07:46:33.314Z,15
2017-12-24T07:47:33.548Z,15
2017-12-24T07:48:33.545Z,15
2017-12-24T07:49:33.549Z,15
2017-12-24T07:50:33.288Z,15
2017-12-24T07:51:33.282Z,15
2017-12-24T07:52:33.535Z,20
2017-12-24T07:53:33.307Z,20
2017-12-24T07:54:33.047Z,20
2017-12-24T07:55:33.257Z,20
2017-12-24T07:56:33.005Z,25
2017-12-24T07:57:32.989Z,25
2017-12-24T07:58:33.515Z,25
2017-12-24T07:59:33.251Z,25
2017-12-24T08:00:33.490Z,25
2017-12-24T08:01:33.224Z,30
2017-12-24T08:02:33.475Z,30
2017-12-24T08:03:37.909Z,30
2017-12-24T08:04:33.212Z,30
2017-12-24T08:05:32.953Z,30
2017-12-24T08:06:33.467Z,30
2017-12-24T08:07:33.445Z,30
2017-12-24T08:08:33.446Z,30
2017-12-24T08:09:33.442Z,30
2017-12-24T08:10:33.427Z,30
2017-12-24T08:11:33.172Z,35
2017-12-24T08:12:33.434Z,35
2017-12-24T08:13:33.170Z,35
2017-12-24T08:14:33.158Z,35
2017-12-24T08:15:33.414Z,35
2017-12-24T08:16:33.400Z,35
2017-12-24T08:17:33.138Z,40
2017-12-24T08:18:33.131Z,40
2017-12-24T08:19:33.129Z,40
2017-12-24T08:20:33.148Z,40
2017-12-24T08:21:33.130Z,40
2017-12-24T08:22:33.380Z,40
2017-12-24T08:23:33.367Z,40
2017-12-24T08:24:33.104Z,40
2017-12-24T08:25:33.097Z,40
2017-12-24T08:26:33.342Z,40
2017-12-24T08:27:32.838Z,45
2017-12-24T08:28:32.835Z,45
2017-12-24T08:29:33.323Z,45
2017-12-24T08:30:33.369Z,45
2017-12-24T08:31:33.080Z,45
2017-12-24T08:32:33.078Z,45
2017-12-24T08:33:33.078Z,45
2017-12-24T08:34:34.119Z,45
2017-12-24T08:35:32.789Z,45
2017-12-24T08:37:05.143Z,45
2017-12-24T08:37:33.033Z,50
2017-12-24T08:38:33.287Z,50
2017-12-24T08:39:33.284Z,50
2017-12-24T08:40:33.017Z,50
2017-12-24T08:41:33.014Z,50
2017-12-24T08:42:33.271Z,55
2017-12-24T08:43:33.268Z,55
2017-12-24T08:44:33.256Z,55
2017-12-24T08:45:33.249Z,55
2017-12-24T08:46:33.262Z,55
2017-12-24T08:47:32.993Z,55
2017-12-24T08:48:33.231Z,55
2017-12-24T08:49:33.226Z,55
2017-12-24T08:50:32.978Z,55
2017-12-24T08:51:32.734Z,55
2017-12-24T08:52:33.216Z,55
2017-12-24T08:53:33.237Z,55
2017-12-24T08:54:32.958Z,60
2017-12-24T08:55:32.707Z,60
2017-12-24T08:56:32.694Z,60
2017-12-24T08:57:32.938Z,60
2017-12-24T08:58:32.927Z,65
2017-12-24T08:59:33.182Z,65
2017-12-24T09:00:33.360Z,65
2017-12-24T09:01:33.170Z,65
2017-12-24T09:02:33.168Z,65
2017-12-24T09:03:33.183Z,65
2017-12-24T09:04:33.960Z,65
2017-12-24T09:05:33.167Z,65
2017-12-24T09:06:32.910Z,65
2017-12-24T09:07:32.653Z,65
2017-12-24T09:08:32.644Z,65
2017-12-24T09:09:37.689Z,70
2017-12-24T09:10:33.133Z,70
2017-12-24T09:11:32.886Z,65
2017-12-24T09:12:33.124Z,65
2017-12-24T09:13:33.115Z,65
2017-12-24T09:14:32.870Z,65
2017-12-24T09:15:32.871Z,65
2017-12-24T09:16:33.105Z,65
2017-12-24T09:17:33.104Z,65
2017-12-24T09:18:32.597Z,60
2017-12-24T09:19:32.839Z,60
2017-12-24T09:20:33.099Z,60
2017-12-24T09:21:32.850Z,60
2017-12-24T09:22:32.820Z,60
2017-12-24T09:23:32.828Z,60
2017-12-24T09:24:33.068Z,65
2017-12-24T09:25:33.082Z,65
2017-12-24T09:26:33.156Z,65
2017-12-24T09:27:32.808Z,65
2017-12-24T09:28:32.807Z,70
2017-12-24T09:29:33.048Z,65
2017-12-24T09:30:32.796Z,65
2017-12-24T09:31:33.040Z,65
2017-12-24T09:32:32.779Z,70
2017-12-24T09:33:33.107Z,70
2017-12-24T09:34:32.775Z,70
2017-12-24T09:35:32.589Z,70
2017-12-24T09:36:32.787Z,70
2017-12-24T09:37:32.520Z,75
2017-12-24T09:38:32.778Z,75
2017-12-24T09:39:32.758Z,75
2017-12-24T09:40:32.510Z,75
2017-12-24T09:41:33.014Z,75
2017-12-24T09:42:33.015Z,75
2017-12-24T09:43:33.003Z,75
2017-12-24T09:44:32.986Z,75
2017-12-24T09:45:32.986Z,75
2017-12-24T09:46:32.478Z,75
2017-12-24T09:47:32.476Z,75
2017-12-24T09:48:32.465Z,80
2017-12-24T09:49:32.710Z,80
2017-12-24T09:50:32.474Z,80
2017-12-24T09:51:32.449Z,80
2017-12-24T09:52:32.471Z,80
2017-12-24T09:53:32.440Z,85
2017-12-24T09:54:32.964Z,85
2017-12-24T09:55:32.693Z,90
2017-12-24T09:56:32.940Z,90
2017-12-24T09:57:32.938Z,95
2017-12-24T09:58:32.938Z,95
2017-12-24T09:59:32.922Z,95
2017-12-24T10:00:32.938Z,100
2017-12-24T10:01:32.665Z,100
2017-12-24T10:02:32.672Z,100
2017-12-24T10:03:32.910Z,100
2017-12-24T10:04:32.412Z,100
2017-12-24T10:05:32.909Z,105
2017-12-24T10:06:32.737Z,105
2017-12-24T10:07:32.904Z,105
2017-12-24T10:08:32.648Z,100
2017-12-24T10:09:32.901Z,100
2017-12-24T10:10:32.883Z,105
2017-12-24T10:11:32.402Z,105
2017-12-24T10:12:32.880Z,105
2017-12-24T10:13:32.367Z,105
2017-12-24T10:14:32.876Z,105
2017-12-24T10:15:32.623Z,105
2017-12-24T10:16:32.366Z,110
2017-12-24T10:17:32.865Z,110
2017-12-24T10:18:32.597Z,110
2017-12-24T10:19:32.618Z,115
2017-12-24T10:20:32.599Z,110
2017-12-24T10:21:32.333Z,110
2017-12-24T10:22:32.076Z,105
2017-12-24T10:53:00.015Z,120
2017-12-24T10:54:00.253Z,120
2017-12-24T10:55:00.239Z,120
2017-12-24T10:56:00.234Z,120
2017-12-24T10:57:00.230Z,115
2017-12-24T10:58:00.524Z,115
2017-12-24T10:59:00.469Z,115
2017-12-24T11:00:00.225Z,115
2017-12-24T11:01:00.454Z,115
2017-12-24T11:02:00.572Z,115
2017-12-24T11:03:00.444Z,110
2017-12-24T11:03:59.675Z,110
2017-12-24T11:05:00.170Z,110
2017-12-24T11:05:59.914Z,110
2017-12-24T11:07:00.429Z,110
2017-12-24T11:08:02.174Z,110
2017-12-24T11:08:59.930Z,110
2017-12-24T11:09:59.913Z,110
2017-12-24T11:11:00.396Z,110
2017-12-24T11:12:00.139Z,110
2017-12-24T11:12:59.884Z,110
2017-12-24T11:14:00.132Z,110
2017-12-24T11:15:00.124Z,110
2017-12-24T11:16:00.140Z,110
2017-12-24T11:17:00.374Z,110
2017-12-24T11:18:00.126Z,110
2017-12-24T11:19:00.116Z,110
2017-12-24T11:19:59.608Z,110
2017-12-24T11:20:59.873Z,110
2017-12-24T11:21:59.866Z,110
2017-12-24T11:23:00.115Z,105
2017-12-24T11:24:00.338Z,110
2017-12-24T11:24:59.832Z,105
2017-12-24T11:26:00.079Z,105
2017-12-24T11:27:00.095Z,105
2017-12-24T11:28:00.095Z,105
2017-12-24T11:28:59.822Z,105
2017-12-24T11:30:00.069Z,105
2017-12-24T11:31:00.347Z,105
2017-12-24T11:31:59.602Z,105
2017-12-24T11:33:00.066Z,105
2017-12-24T11:34:00.076Z,105
2017-12-24T11:35:00.307Z,105
2017-12-24T11:35:59.828Z,105
2017-12-24T11:37:00.063Z,105
2017-12-24T11:38:03.253Z,115
2017-12-24T11:39:00.105Z,110
2017-12-24T11:40:00.323Z,110
2017-12-24T11:41:00.030Z,115
2017-12-24T11:42:00.334Z,115
2017-12-24T11:43:00.318Z,115
2017-12-24T11:44:00.027Z,115
2017-12-24T11:45:00.043Z,120
2017-12-24T11:45:59.772Z,115
2017-12-24T11:46:59.813Z,115
2017-12-24T11:48:00.112Z,115
2017-12-24T11:49:00.275Z,115
2017-12-24T11:50:00.015Z,115
2017-12-24T11:51:00.334Z,115
2017-12-24T11:52:00.250Z,115
2017-12-24T11:53:00.000Z,115
2017-12-24T11:54:00.238Z,115
2017-12-24T11:55:00.312Z,115
2017-12-24T11:56:00.241Z,115
2017-12-24T11:56:59.999Z,115
2017-12-24T11:58:00.240Z,115
2017-12-24T11:58:59.996Z,115
2017-12-24T11:59:59.985Z,110
2017-12-24T12:00:59.961Z,110
2017-12-24T12:02:00.230Z,110
2017-12-24T12:02:59.976Z,110
2017-12-24T12:03:59.972Z,110
2017-12-24T12:04:59.731Z,110
2017-12-24T12:05:59.974Z,110
2017-12-24T12:07:00.216Z,110
2017-12-24T12:07:59.767Z,110
2017-12-24T12:09:03.191Z,110
2017-12-24T12:09:59.708Z,110
2017-12-24T12:10:59.696Z,110
2017-12-24T12:11:59.943Z,110
2017-12-24T12:12:59.947Z,105
2017-12-24T12:13:59.946Z,105
2017-12-24T12:14:59.945Z,105
2017-12-24T12:15:59.950Z,100
2017-12-24T12:16:59.680Z,100
2017-12-24T12:17:59.926Z,100
2017-12-24T12:18:59.913Z,100
2017-12-24T12:20:00.178Z,100
2017-12-24T12:20:59.929Z,105
2017-12-24T12:21:59.644Z,105
2017-12-24T12:22:59.908Z,105
2017-12-24T12:23:59.662Z,105
2017-12-24T12:24:59.895Z,105
2017-12-24T12:25:59.635Z,105
2017-12-24T12:27:00.141Z,105
2017-12-24T12:28:00.140Z,105
2017-12-24T12:28:59.901Z,105
2017-12-24T12:30:00.138Z,100
2017-12-24T12:31:00.141Z,105
2017-12-24T12:31:59.896Z,100
2017-12-24T12:33:00.120Z,100
2017-12-24T12:33:59.943Z,100
2017-12-24T12:34:59.618Z,95
2017-12-24T12:36:00.115Z,95
2017-12-24T12:37:00.118Z,95
2017-12-24T12:37:59.861Z,100
2017-12-24T12:39:00.098Z,95
2017-12-24T12:40:00.152Z,95
2017-12-24T12:41:00.104Z,95
2017-12-24T12:42:00.083Z,95
2017-12-24T12:42:59.585Z,95
2017-12-24T12:43:59.872Z,95
2017-12-24T12:44:59.821Z,95
2017-12-24T12:45:59.570Z,90
2017-12-24T12:47:00.067Z,95
2017-12-24T12:47:59.831Z,85
2017-12-24T12:49:00.066Z,85
2017-12-24T12:50:00.072Z,85
2017-12-24T12:50:59.818Z,85
2017-12-24T12:51:59.554Z,80
2017-12-24T12:53:00.078Z,80
2017-12-24T12:53:59.792Z,85
2017-12-24T12:54:59.288Z,85
2017-12-24T12:56:00.052Z,85
2017-12-24T12:56:59.788Z,85
2017-12-24T12:57:59.552Z,85
2017-12-24T12:58:59.783Z,80
2017-12-24T12:59:59.274Z,80
2017-12-24T13:00:59.516Z,80
2017-12-24T13:02:00.029Z,80
2017-12-24T13:03:00.020Z,80
2017-12-24T13:04:00.026Z,75
2017-12-24T13:05:00.010Z,80
2017-12-24T13:05:59.778Z,80
2017-12-24T13:07:00.027Z,80
2017-12-24T13:07:59.767Z,80
2017-12-24T13:09:00.011Z,80
2017-12-24T13:09:59.996Z,80
2017-12-24T13:10:59.481Z,80
2017-12-24T13:11:59.509Z,80
2017-12-24T13:12:59.734Z,80
2017-12-24T13:13:59.977Z,75
2017-12-24T13:14:59.726Z,75
2017-12-24T13:15:59.730Z,75
2017-12-24T13:16:59.466Z,75
2017-12-24T13:17:59.474Z,80
2017-12-24T13:18:59.474Z,80
2017-12-24T13:19:59.714Z,80
2017-12-24T13:20:59.962Z,75
2017-12-24T13:21:59.954Z,75
2017-12-24T13:22:59.431Z,75
2017-12-24T13:23:59.953Z,75
2017-12-24T13:24:59.692Z,75
2017-12-24T13:25:59.942Z,75
2017-12-24T13:26:59.941Z,75
2017-12-24T13:27:59.669Z,75
2017-12-24T13:28:59.927Z,70
2017-12-24T13:29:59.661Z,70
2017-12-24T13:30:59.668Z,70
2017-12-24T13:31:59.397Z,70
2017-12-24T13:32:59.915Z,70
2017-12-24T13:33:59.391Z,70
2017-12-24T13:34:59.635Z,70
2017-12-24T13:35:59.377Z,70
2017-12-24T13:36:59.624Z,65
2017-12-24T13:37:59.634Z,65
2017-12-24T13:39:00.921Z,65
2017-12-24T13:39:59.892Z,65
2017-12-24T13:40:59.369Z,60
2017-12-24T13:41:59.120Z,60
2017-12-24T13:42:59.866Z,60
2017-12-24T13:43:59.595Z,60
2017-12-24T13:44:59.604Z,60
2017-12-24T13:45:59.593Z,55
2017-12-24T13:46:59.842Z,55
2017-12-24T13:47:59.821Z,55
2017-12-24T13:48:59.875Z,55
2017-12-24T13:49:59.307Z,55
2017-12-24T13:50:59.554Z,50
2017-12-24T13:51:59.570Z,50
2017-12-24T13:52:59.808Z,55
2017-12-24T13:53:59.546Z,55
2017-12-24T13:54:59.287Z,55
2017-12-24T13:55:59.297Z,55
2017-12-24T13:56:59.779Z,55
2017-12-24T13:57:59.275Z,55
2017-12-24T13:58:59.775Z,50
2017-12-24T13:59:59.762Z,50
2017-12-24T14:00:59.766Z,50
2017-12-24T14:01:59.244Z,50
2017-12-24T14:02:59.745Z,50
2017-12-24T14:03:59.746Z,50
2017-12-24T14:04:59.740Z,50
2017-12-24T14:05:59.745Z,45
2017-12-24T14:06:59.738Z,45
2017-12-24T14:07:59.477Z,45
2017-12-24T14:08:59.738Z,45
2017-12-24T14:09:59.213Z,45
2017-12-24T14:10:59.711Z,45
2017-12-24T14:11:59.469Z,40
2017-12-24T14:12:59.445Z,40
2017-12-24T14:13:59.445Z,40
2017-12-24T14:14:59.207Z,40
2017-12-24T14:15:59.692Z,40
2017-12-24T14:16:59.444Z,40
2017-12-24T14:17:59.699Z,40
2017-12-24T14:18:59.443Z,35
2017-12-24T14:19:59.421Z,35
2017-12-24T14:20:59.401Z,35
2017-12-24T14:21:59.407Z,35
2017-12-24T14:22:59.408Z,35
2017-12-24T14:23:59.388Z,30
2017-12-24T14:24:59.386Z,30
2017-12-24T14:25:59.390Z,30
2017-12-24T14:26:59.384Z,30
2017-12-24T14:27:59.145Z,30
2017-12-24T14:28:59.140Z,30
2017-12-24T14:29:59.636Z,30
2017-12-24T14:30:59.373Z,30
2017-12-24T14:31:59.645Z,25
2017-12-24T14:32:59.366Z,25
2017-12-24T14:33:59.348Z,25
2017-12-24T14:34:59.597Z,25
2017-12-24T14:35:59.580Z,25
2017-12-24T14:36:59.348Z,25
2017-12-24T14:37:59.321Z,25
2017-12-24T14:38:59.576Z,25
2017-12-24T14:40:01.771Z,25
2017-12-24T14:40:59.096Z,25
2017-12-24T14:41:59.068Z,25
2017-12-24T14:42:59.552Z,20
2017-12-24T14:43:59.567Z,20
2017-12-24T14:45:00.114Z,20
2017-12-24T14:45:59.105Z,20
2017-12-24T14:46:59.281Z,20
2017-12-24T14:47:59.279Z,20
2017-12-24T14:48:59.007Z,20
2017-12-24T14:49:59.531Z,20
2017-12-24T14:50:59.267Z,20
2017-12-24T14:51:59.308Z,15
2017-12-24T14:52:59.529Z,15
2017-12-24T14:53:58.736Z,15
2017-12-24T14:55:01.100Z,15
2017-12-24T14:55:59.235Z,15
2017-12-24T14:56:59.238Z,15